New Windsor, New York
Current Conditions -  °F | °C
As of 1:45 PM on Thursday 27 Nov 2014 (Local Time) from KSWF Reporting Station
Light Snow Light Snow  
Wind Chill: 34°   Ceiling: 500
Heat Index: 34°   Visibility: 2mi
Dew Point: 32°   Wind: 0mph
Humidity: 93%   Direction: NA
Pressure: 29.97"   Gusts: NA
Location:  41.48°N, 74.02°W
Report Text: KSWF 271845Z 00000KT 2SM -SN BR OVC005 01/00 A2997
Loading
Personal Weather Stations






























Interactive Weather Map New forecast layout! Learn more

10-Day Weather Forecast

Advertisements
Track Severe Weather on mobile